sensor_id;sensor_type;location;lat;lon;timestamp;temperature;humidity
15617;DHT22;7908;51.688;7.130;2024-02-04T00:01:18;10.30;99.90
15617;DHT22;7908;51.688;7.130;2024-02-04T00:03:48;10.30;99.90
15617;DHT22;7908;51.688;7.130;2024-02-04T00:06:23;10.30;99.90
15617;DHT22;7908;51.688;7.130;2024-02-04T00:08:58;10.30;99.90
15617;DHT22;7908;51.688;7.130;2024-02-04T00:11:31;10.30;99.90
15617;DHT22;7908;51.688;7.130;2024-02-04T00:14:02;10.30;99.90
15617;DHT22;7908;51.688;7.130;2024-02-04T00:16:36;10.30;99.90
15617;DHT22;7908;51.688;7.130;2024-02-04T00:19:05;10.30;99.90
15617;DHT22;7908;51.688;7.130;2024-02-04T00:21:39;10.30;99.90
15617;DHT22;7908;51.688;7.130;2024-02-04T00:24:11;10.30;99.90
15617;DHT22;7908;51.688;7.130;2024-02-04T00:26:42;10.30;99.90
15617;DHT22;7908;51.688;7.130;2024-02-04T00:29:20;10.30;99.90
15617;DHT22;7908;51.688;7.130;2024-02-04T00:31:50;10.30;99.90
15617;DHT22;7908;51.688;7.130;2024-02-04T00:34:19;10.30;99.90
15617;DHT22;7908;51.688;7.130;2024-02-04T00:36:48;10.30;99.90
15617;DHT22;7908;51.688;7.130;2024-02-04T00:39:17;10.30;99.90
15617;DHT22;7908;51.688;7.130;2024-02-04T00:41:48;10.30;99.90
15617;DHT22;7908;51.688;7.130;2024-02-04T00:44:17;10.20;99.90
15617;DHT22;7908;51.688;7.130;2024-02-04T00:46:45;10.30;99.90
15617;DHT22;7908;51.688;7.130;2024-02-04T00:49:14;10.20;99.90
15617;DHT22;7908;51.688;7.130;2024-02-04T00:51:44;10.20;99.90
15617;DHT22;7908;51.688;7.130;2024-02-04T00:54:13;10.20;99.90
15617;DHT22;7908;51.688;7.130;2024-02-04T00:56:42;10.10;99.90
15617;DHT22;7908;51.688;7.130;2024-02-04T00:59:12;10.10;99.90
15617;DHT22;7908;51.688;7.130;2024-02-04T01:01:41;10.10;99.90
15617;DHT22;7908;51.688;7.130;2024-02-04T01:04:10;10.10;99.90
15617;DHT22;7908;51.688;7.130;2024-02-04T01:06:40;10.00;99.90
15617;DHT22;7908;51.688;7.130;2024-02-04T01:09:25;10.10;99.90
15617;DHT22;7908;51.688;7.130;2024-02-04T01:11:54;10.00;99.90
15617;DHT22;7908;51.688;7.130;2024-02-04T01:14:25;9.90;99.90
15617;DHT22;7908;51.688;7.130;2024-02-04T01:16:53;9.90;99.90
15617;DHT22;7908;51.688;7.130;2024-02-04T01:19:22;10.00;99.90
15617;DHT22;7908;51.688;7.130;2024-02-04T01:21:51;9.90;99.90
15617;DHT22;7908;51.688;7.130;2024-02-04T01:24:20;9.90;99.90
15617;DHT22;7908;51.688;7.130;2024-02-04T01:26:49;10.00;99.90
15617;DHT22;7908;51.688;7.130;2024-02-04T01:29:18;9.90;99.90
15617;DHT22;7908;51.688;7.130;2024-02-04T01:31:48;9.90;99.90
15617;DHT22;7908;51.688;7.130;2024-02-04T01:34:16;9.90;99.90
15617;DHT22;7908;51.688;7.130;2024-02-04T01:36:45;10.00;99.90
15617;DHT22;7908;51.688;7.130;2024-02-04T01:39:14;10.00;99.90
15617;DHT22;7908;51.688;7.130;2024-02-04T01:41:42;10.00;99.90
15617;DHT22;7908;51.688;7.130;2024-02-04T01:44:12;10.00;99.90
15617;DHT22;7908;51.688;7.130;2024-02-04T01:46:42;10.00;99.90
15617;DHT22;7908;51.688;7.130;2024-02-04T01:49:13;10.10;99.90
15617;DHT22;7908;51.688;7.130;2024-02-04T01:51:41;10.10;99.90
15617;DHT22;7908;51.688;7.130;2024-02-04T01:54:10;10.10;99.90
15617;DHT22;7908;51.688;7.130;2024-02-04T01:56:38;10.10;99.90
15617;DHT22;7908;51.688;7.130;2024-02-04T01:59:07;10.10;99.90
15617;DHT22;7908;51.688;7.130;2024-02-04T02:01:36;10.10;99.90
15617;DHT22;7908;51.688;7.130;2024-02-04T02:04:05;10.10;99.90
15617;DHT22;7908;51.688;7.130;2024-02-04T02:06:35;10.10;99.90
15617;DHT22;7908;51.688;7.130;2024-02-04T02:09:09;10.10;99.90
15617;DHT22;7908;51.688;7.130;2024-02-04T02:11:40;10.10;99.90
15617;DHT22;7908;51.688;7.130;2024-02-04T02:14:11;10.20;99.90
15617;DHT22;7908;51.688;7.130;2024-02-04T02:16:41;10.20;99.90
15617;DHT22;7908;51.688;7.130;2024-02-04T02:19:15;10.20;99.90
15617;DHT22;7908;51.688;7.130;2024-02-04T02:21:50;10.20;99.90
15617;DHT22;7908;51.688;7.130;2024-02-04T02:24:31;10.30;99.90
15617;DHT22;7908;51.688;7.130;2024-02-04T02:27:00;10.30;99.90
15617;DHT22;7908;51.688;7.130;2024-02-04T02:29:28;10.20;99.90
15617;DHT22;7908;51.688;7.130;2024-02-04T02:31:56;10.20;99.90
15617;DHT22;7908;51.688;7.130;2024-02-04T02:34:25;10.20;99.90
15617;DHT22;7908;51.688;7.130;2024-02-04T02:37:08;10.20;99.90
15617;DHT22;7908;51.688;7.130;2024-02-04T02:39:39;10.10;99.90
15617;DHT22;7908;51.688;7.130;2024-02-04T02:42:10;10.30;99.90
15617;DHT22;7908;51.688;7.130;2024-02-04T02:44:40;10.30;99.90
15617;DHT22;7908;51.688;7.130;2024-02-04T02:47:08;10.30;99.90
15617;DHT22;7908;51.688;7.130;2024-02-04T02:49:37;10.20;99.90
15617;DHT22;7908;51.688;7.130;2024-02-04T02:52:06;10.20;99.90
15617;DHT22;7908;51.688;7.130;2024-02-04T02:54:34;10.30;99.90
15617;DHT22;7908;51.688;7.130;2024-02-04T02:57:05;10.30;99.90
15617;DHT22;7908;51.688;7.130;2024-02-04T02:59:33;10.30;99.90
15617;DHT22;7908;51.688;7.130;2024-02-04T03:02:02;10.20;99.90
15617;DHT22;7908;51.688;7.130;2024-02-04T03:04:31;10.20;99.90
15617;DHT22;7908;51.688;7.130;2024-02-04T03:06:59;10.20;99.90
15617;DHT22;7908;51.688;7.130;2024-02-04T03:09:28;10.20;99.90
15617;DHT22;7908;51.688;7.130;2024-02-04T03:11:57;10.20;99.90
15617;DHT22;7908;51.688;7.130;2024-02-04T03:14:27;10.10;99.90
15617;DHT22;7908;51.688;7.130;2024-02-04T03:16:55;10.20;99.90
15617;DHT22;7908;51.688;7.130;2024-02-04T03:19:23;10.20;99.90
15617;DHT22;7908;51.688;7.130;2024-02-04T03:21:52;10.20;99.90
15617;DHT22;7908;51.688;7.130;2024-02-04T03:24:20;10.20;99.90
15617;DHT22;7908;51.688;7.130;2024-02-04T03:26:49;10.20;99.90
15617;DHT22;7908;51.688;7.130;2024-02-04T03:29:17;10.20;99.90
15617;DHT22;7908;51.688;7.130;2024-02-04T03:31:48;10.10;99.90
15617;DHT22;7908;51.688;7.130;2024-02-04T03:34:16;10.10;99.90
15617;DHT22;7908;51.688;7.130;2024-02-04T03:36:45;10.10;99.90
15617;DHT22;7908;51.688;7.130;2024-02-04T03:39:13;10.10;99.90
15617;DHT22;7908;51.688;7.130;2024-02-04T03:41:42;10.00;99.90
15617;DHT22;7908;51.688;7.130;2024-02-04T03:44:10;10.00;99.90
15617;DHT22;7908;51.688;7.130;2024-02-04T03:46:39;10.00;99.90
15617;DHT22;7908;51.688;7.130;2024-02-04T03:49:09;10.00;99.90
15617;DHT22;7908;51.688;7.130;2024-02-04T03:51:38;10.00;99.90
15617;DHT22;7908;51.688;7.130;2024-02-04T03:54:06;10.00;99.90
15617;DHT22;7908;51.688;7.130;2024-02-04T03:56:34;10.00;99.90
15617;DHT22;7908;51.688;7.130;2024-02-04T03:59:03;10.00;99.90
15617;DHT22;7908;51.688;7.130;2024-02-04T04:01:33;10.00;99.90
15617;DHT22;7908;51.688;7.130;2024-02-04T04:04:04;10.00;99.90
15617;DHT22;7908;51.688;7.130;2024-02-04T04:06:35;10.00;99.90
15617;DHT22;7908;51.688;7.130;2024-02-04T04:09:04;10.00;99.90
15617;DHT22;7908;51.688;7.130;2024-02-04T04:11:32;10.00;99.90
15617;DHT22;7908;51.688;7.130;2024-02-04T04:14:01;10.00;99.90
15617;DHT22;7908;51.688;7.130;2024-02-04T04:16:29;10.00;99.90
15617;DHT22;7908;51.688;7.130;2024-02-04T04:18:57;10.10;99.90
15617;DHT22;7908;51.688;7.130;2024-02-04T04:21:26;10.10;99.90
15617;DHT22;7908;51.688;7.130;2024-02-04T04:23:56;10.10;99.90
15617;DHT22;7908;51.688;7.130;2024-02-04T04:26:25;10.40;99.90
15617;DHT22;7908;51.688;7.130;2024-02-04T04:28:53;10.10;99.90
15617;DHT22;7908;51.688;7.130;2024-02-04T04:31:21;10.10;99.90
15617;DHT22;7908;51.688;7.130;2024-02-04T04:33:50;10.10;99.90
15617;DHT22;7908;51.688;7.130;2024-02-04T04:36:21;10.10;99.90
15617;DHT22;7908;51.688;7.130;2024-02-04T04:38:49;10.10;99.90
15617;DHT22;7908;51.688;7.130;2024-02-04T04:41:19;10.10;99.90
15617;DHT22;7908;51.688;7.130;2024-02-04T04:43:47;10.20;99.90
15617;DHT22;7908;51.688;7.130;2024-02-04T04:46:16;10.20;99.90
15617;DHT22;7908;51.688;7.130;2024-02-04T04:48:44;10.20;99.90
15617;DHT22;7908;51.688;7.130;2024-02-04T04:51:13;10.20;99.90
15617;DHT22;7908;51.688;7.130;2024-02-04T04:53:41;10.20;99.90
15617;DHT22;7908;51.688;7.130;2024-02-04T04:56:10;10.20;99.90
15617;DHT22;7908;51.688;7.130;2024-02-04T04:58:40;10.30;99.90
15617;DHT22;7908;51.688;7.130;2024-02-04T05:01:08;12.20;99.90
15617;DHT22;7908;51.688;7.130;2024-02-04T05:03:37;10.20;99.90
15617;DHT22;7908;51.688;7.130;2024-02-04T05:06:05;10.20;99.90
15617;DHT22;7908;51.688;7.130;2024-02-04T05:08:34;10.20;99.90
15617;DHT22;7908;51.688;7.130;2024-02-04T05:11:03;10.20;99.90
15617;DHT22;7908;51.688;7.130;2024-02-04T05:13:32;10.20;99.90
15617;DHT22;7908;51.688;7.130;2024-02-04T05:16:02;10.10;99.90
15617;DHT22;7908;51.688;7.130;2024-02-04T05:18:31;10.10;99.90
15617;DHT22;7908;51.688;7.130;2024-02-04T05:21:00;10.10;99.90
15617;DHT22;7908;51.688;7.130;2024-02-04T05:23:29;10.00;99.90
15617;DHT22;7908;51.688;7.130;2024-02-04T05:25:57;10.00;99.90
15617;DHT22;7908;51.688;7.130;2024-02-04T05:28:26;10.00;99.90
15617;DHT22;7908;51.688;7.130;2024-02-04T05:30:54;10.00;99.90
15617;DHT22;7908;51.688;7.130;2024-02-04T05:33:24;10.00;99.90
15617;DHT22;7908;51.688;7.130;2024-02-04T05:35:52;9.90;99.90
15617;DHT22;7908;51.688;7.130;2024-02-04T05:38:21;9.90;99.90
15617;DHT22;7908;51.688;7.130;2024-02-04T05:40:49;10.00;99.90
15617;DHT22;7908;51.688;7.130;2024-02-04T05:43:18;10.00;99.90
15617;DHT22;7908;51.688;7.130;2024-02-04T05:45:46;9.90;99.90
15617;DHT22;7908;51.688;7.130;2024-02-04T05:48:15;9.90;99.90
15617;DHT22;7908;51.688;7.130;2024-02-04T05:50:45;9.80;99.90
15617;DHT22;7908;51.688;7.130;2024-02-04T05:53:14;9.80;99.90
15617;DHT22;7908;51.688;7.130;2024-02-04T05:55:43;9.80;99.90
15617;DHT22;7908;51.688;7.130;2024-02-04T05:58:11;9.80;99.90
15617;DHT22;7908;51.688;7.130;2024-02-04T06:00:41;9.80;99.90
15617;DHT22;7908;51.688;7.130;2024-02-04T06:03:09;9.90;99.90
15617;DHT22;7908;51.688;7.130;2024-02-04T06:05:38;9.90;99.90
15617;DHT22;7908;51.688;7.130;2024-02-04T06:08:07;9.90;99.90
15617;DHT22;7908;51.688;7.130;2024-02-04T06:10:36;9.80;99.90
15617;DHT22;7908;51.688;7.130;2024-02-04T06:13:04;9.80;99.90
15617;DHT22;7908;51.688;7.130;2024-02-04T06:15:33;9.80;99.90
15617;DHT22;7908;51.688;7.130;2024-02-04T06:18:02;9.80;99.90
15617;DHT22;7908;51.688;7.130;2024-02-04T06:20:31;9.90;99.90
15617;DHT22;7908;51.688;7.130;2024-02-04T06:22:59;9.80;99.90
15617;DHT22;7908;51.688;7.130;2024-02-04T06:25:30;9.80;99.90
15617;DHT22;7908;51.688;7.130;2024-02-04T06:27:59;9.80;99.90
15617;DHT22;7908;51.688;7.130;2024-02-04T06:30:27;9.80;99.90
15617;DHT22;7908;51.688;7.130;2024-02-04T06:32:56;9.80;99.90
15617;DHT22;7908;51.688;7.130;2024-02-04T06:35:26;9.80;99.90
15617;DHT22;7908;51.688;7.130;2024-02-04T06:37:54;9.80;99.90
15617;DHT22;7908;51.688;7.130;2024-02-04T06:40:27;9.90;99.90
15617;DHT22;7908;51.688;7.130;2024-02-04T06:42:57;9.90;99.90
15617;DHT22;7908;51.688;7.130;2024-02-04T06:45:26;9.90;99.90
15617;DHT22;7908;51.688;7.130;2024-02-04T06:47:54;9.90;99.90
15617;DHT22;7908;51.688;7.130;2024-02-04T06:50:23;9.90;99.90
15617;DHT22;7908;51.688;7.130;2024-02-04T06:52:52;9.90;99.90
15617;DHT22;7908;51.688;7.130;2024-02-04T06:55:20;9.90;99.90
15617;DHT22;7908;51.688;7.130;2024-02-04T06:57:49;9.90;99.90
15617;DHT22;7908;51.688;7.130;2024-02-04T07:00:19;9.90;99.90
15617;DHT22;7908;51.688;7.130;2024-02-04T07:02:48;9.90;99.90
15617;DHT22;7908;51.688;7.130;2024-02-04T07:05:17;10.00;99.90
15617;DHT22;7908;51.688;7.130;2024-02-04T07:07:49;10.00;99.90
15617;DHT22;7908;51.688;7.130;2024-02-04T07:10:17;10.00;99.90
15617;DHT22;7908;51.688;7.130;2024-02-04T07:12:46;10.00;99.90
15617;DHT22;7908;51.688;7.130;2024-02-04T07:15:15;10.00;99.90
15617;DHT22;7908;51.688;7.130;2024-02-04T07:17:44;10.00;99.90
15617;DHT22;7908;51.688;7.130;2024-02-04T07:20:14;10.00;99.90
15617;DHT22;7908;51.688;7.130;2024-02-04T07:22:42;10.00;99.90
15617;DHT22;7908;51.688;7.130;2024-02-04T07:25:11;10.00;99.90
15617;DHT22;7908;51.688;7.130;2024-02-04T07:27:40;10.00;99.90
15617;DHT22;7908;51.688;7.130;2024-02-04T07:30:09;10.00;99.90
15617;DHT22;7908;51.688;7.130;2024-02-04T07:32:38;10.10;99.90
15617;DHT22;7908;51.688;7.130;2024-02-04T07:35:09;10.10;99.90
15617;DHT22;7908;51.688;7.130;2024-02-04T07:37:37;10.00;99.90
15617;DHT22;7908;51.688;7.130;2024-02-04T07:40:09;10.00;99.90
15617;DHT22;7908;51.688;7.130;2024-02-04T07:42:38;10.10;99.90
15617;DHT22;7908;51.688;7.130;2024-02-04T07:45:08;10.10;99.90
15617;DHT22;7908;51.688;7.130;2024-02-04T07:47:36;10.10;99.90
15617;DHT22;7908;51.688;7.130;2024-02-04T07:50:06;10.10;99.90
15617;DHT22;7908;51.688;7.130;2024-02-04T07:52:36;10.10;99.90
15617;DHT22;7908;51.688;7.130;2024-02-04T07:55:09;10.10;99.90
15617;DHT22;7908;51.688;7.130;2024-02-04T07:57:37;10.10;99.90
15617;DHT22;7908;51.688;7.130;2024-02-04T08:00:06;10.10;99.90
15617;DHT22;7908;51.688;7.130;2024-02-04T08:02:37;10.20;99.90
15617;DHT22;7908;51.688;7.130;2024-02-04T08:05:06;10.20;99.90
15617;DHT22;7908;51.688;7.130;2024-02-04T08:07:36;10.20;99.90
15617;DHT22;7908;51.688;7.130;2024-02-04T08:10:06;10.10;99.90
15617;DHT22;7908;51.688;7.130;2024-02-04T08:12:35;10.20;99.90
15617;DHT22;7908;51.688;7.130;2024-02-04T08:15:04;10.20;99.90
15617;DHT22;7908;51.688;7.130;2024-02-04T08:17:35;10.20;99.90
15617;DHT22;7908;51.688;7.130;2024-02-04T08:20:04;10.30;99.90
15617;DHT22;7908;51.688;7.130;2024-02-04T08:22:34;10.20;99.90
15617;DHT22;7908;51.688;7.130;2024-02-04T08:25:05;10.30;99.90
15617;DHT22;7908;51.688;7.130;2024-02-04T08:27:38;10.30;99.90
15617;DHT22;7908;51.688;7.130;2024-02-04T08:30:08;10.30;99.90
15617;DHT22;7908;51.688;7.130;2024-02-04T08:32:42;10.30;99.90
15617;DHT22;7908;51.688;7.130;2024-02-04T08:35:11;10.30;99.90
15617;DHT22;7908;51.688;7.130;2024-02-04T08:37:41;10.30;99.90
15617;DHT22;7908;51.688;7.130;2024-02-04T08:40:12;10.30;99.90
15617;DHT22;7908;51.688;7.130;2024-02-04T08:42:43;10.30;99.90
15617;DHT22;7908;51.688;7.130;2024-02-04T08:45:13;10.30;99.90
15617;DHT22;7908;51.688;7.130;2024-02-04T08:47:42;10.40;99.90
15617;DHT22;7908;51.688;7.130;2024-02-04T08:50:11;10.40;99.90
15617;DHT22;7908;51.688;7.130;2024-02-04T08:52:41;10.40;99.90
15617;DHT22;7908;51.688;7.130;2024-02-04T08:55:13;10.30;99.90
15617;DHT22;7908;51.688;7.130;2024-02-04T08:57:42;10.30;99.90
15617;DHT22;7908;51.688;7.130;2024-02-04T09:00:13;10.40;99.90
15617;DHT22;7908;51.688;7.130;2024-02-04T09:02:44;10.40;99.90
15617;DHT22;7908;51.688;7.130;2024-02-04T09:05:18;10.40;99.90
15617;DHT22;7908;51.688;7.130;2024-02-04T09:07:48;10.40;99.90
15617;DHT22;7908;51.688;7.130;2024-02-04T09:10:22;10.40;99.90
15617;DHT22;7908;51.688;7.130;2024-02-04T09:12:56;10.40;99.90
15617;DHT22;7908;51.688;7.130;2024-02-04T09:15:26;10.40;99.90
15617;DHT22;7908;51.688;7.130;2024-02-04T09:17:55;10.40;99.90
15617;DHT22;7908;51.688;7.130;2024-02-04T09:20:24;10.40;99.90
15617;DHT22;7908;51.688;7.130;2024-02-04T09:23:02;10.40;99.90
15617;DHT22;7908;51.688;7.130;2024-02-04T09:25:34;10.30;99.90
15617;DHT22;7908;51.688;7.130;2024-02-04T09:28:08;10.30;99.90
15617;DHT22;7908;51.688;7.130;2024-02-04T09:30:37;11.90;99.90
15617;DHT22;7908;51.688;7.130;2024-02-04T09:33:06;10.30;99.90
15617;DHT22;7908;51.688;7.130;2024-02-04T09:35:37;10.40;99.90
15617;DHT22;7908;51.688;7.130;2024-02-04T09:38:08;10.30;99.90
15617;DHT22;7908;51.688;7.130;2024-02-04T09:40:42;10.30;99.90
15617;DHT22;7908;51.688;7.130;2024-02-04T09:43:17;10.30;99.90
15617;DHT22;7908;51.688;7.130;2024-02-04T09:45:48;10.30;99.90
15617;DHT22;7908;51.688;7.130;2024-02-04T09:48:20;10.20;99.90
15617;DHT22;7908;51.688;7.130;2024-02-04T09:50:52;10.30;99.90
15617;DHT22;7908;51.688;7.130;2024-02-04T09:53:27;10.20;99.90
15617;DHT22;7908;51.688;7.130;2024-02-04T09:56:04;10.10;99.90
15617;DHT22;7908;51.688;7.130;2024-02-04T09:58:36;10.10;99.90
15617;DHT22;7908;51.688;7.130;2024-02-04T10:01:07;10.00;99.90
15617;DHT22;7908;51.688;7.130;2024-02-04T10:03:37;10.00;99.90
15617;DHT22;7908;51.688;7.130;2024-02-04T10:06:09;10.00;99.90
15617;DHT22;7908;51.688;7.130;2024-02-04T10:08:43;9.90;99.90
15617;DHT22;7908;51.688;7.130;2024-02-04T10:11:15;9.90;99.90
15617;DHT22;7908;51.688;7.130;2024-02-04T10:13:48;9.90;99.90
15617;DHT22;7908;51.688;7.130;2024-02-04T10:16:21;9.90;99.90
15617;DHT22;7908;51.688;7.130;2024-02-04T10:18:55;10.00;99.90
15617;DHT22;7908;51.688;7.130;2024-02-04T10:21:25;10.10;99.90
15617;DHT22;7908;51.688;7.130;2024-02-04T10:24:02;10.10;99.90
15617;DHT22;7908;51.688;7.130;2024-02-04T10:26:42;10.10;99.90
15617;DHT22;7908;51.688;7.130;2024-02-04T10:29:28;10.10;99.90
15617;DHT22;7908;51.688;7.130;2024-02-04T10:32:10;10.10;99.90
15617;DHT22;7908;51.688;7.130;2024-02-04T10:34:46;10.10;99.90
15617;DHT22;7908;51.688;7.130;2024-02-04T10:37:20;10.20;99.90
15617;DHT22;7908;51.688;7.130;2024-02-04T10:39:58;10.20;99.90
15617;DHT22;7908;51.688;7.130;2024-02-04T10:42:38;10.20;99.90
15617;DHT22;7908;51.688;7.130;2024-02-04T10:45:28;10.20;99.90
15617;DHT22;7908;51.688;7.130;2024-02-04T10:48:01;10.10;99.90
15617;DHT22;7908;51.688;7.130;2024-02-04T10:50:32;10.20;99.90
15617;DHT22;7908;51.688;7.130;2024-02-04T10:53:10;10.30;99.90
15617;DHT22;7908;51.688;7.130;2024-02-04T10:55:47;10.40;99.90
15617;DHT22;7908;51.688;7.130;2024-02-04T10:58:21;10.40;99.90
15617;DHT22;7908;51.688;7.130;2024-02-04T11:00:59;10.40;99.90
15617;DHT22;7908;51.688;7.130;2024-02-04T11:03:47;10.50;99.90
15617;DHT22;7908;51.688;7.130;2024-02-04T11:06:21;10.50;99.90
15617;DHT22;7908;51.688;7.130;2024-02-04T11:08:52;10.50;99.90
15617;DHT22;7908;51.688;7.130;2024-02-04T11:11:24;10.60;99.90
15617;DHT22;7908;51.688;7.130;2024-02-04T11:13:56;10.60;99.90
15617;DHT22;7908;51.688;7.130;2024-02-04T11:16:40;10.70;99.90
15617;DHT22;7908;51.688;7.130;2024-02-04T11:19:21;10.80;99.90
15617;DHT22;7908;51.688;7.130;2024-02-04T11:22:09;11.00;99.90
15617;DHT22;7908;51.688;7.130;2024-02-04T11:24:54;11.00;99.90
15617;DHT22;7908;51.688;7.130;2024-02-04T11:27:35;11.00;99.90
15617;DHT22;7908;51.688;7.130;2024-02-04T11:30:10;11.00;99.90
15617;DHT22;7908;51.688;7.130;2024-02-04T11:32:47;11.00;99.90
15617;DHT22;7908;51.688;7.130;2024-02-04T11:35:19;11.10;99.90
15617;DHT22;7908;51.688;7.130;2024-02-04T11:37:55;11.30;99.90
15617;DHT22;7908;51.688;7.130;2024-02-04T11:40:30;11.50;99.90
15617;DHT22;7908;51.688;7.130;2024-02-04T11:43:04;11.70;99.90
15617;DHT22;7908;51.688;7.130;2024-02-04T11:45:39;11.70;99.90
15617;DHT22;7908;51.688;7.130;2024-02-04T11:48:12;11.70;99.90
15617;DHT22;7908;51.688;7.130;2024-02-04T11:50:51;11.60;99.90
15617;DHT22;7908;51.688;7.130;2024-02-04T11:53:28;11.60;99.90
15617;DHT22;7908;51.688;7.130;2024-02-04T11:56:04;11.50;99.90
15617;DHT22;7908;51.688;7.130;2024-02-04T11:58:42;11.40;99.90
15617;DHT22;7908;51.688;7.130;2024-02-04T12:01:19;11.40;99.90
15617;DHT22;7908;51.688;7.130;2024-02-04T12:03:51;11.30;99.90
15617;DHT22;7908;51.688;7.130;2024-02-04T12:06:27;11.30;99.90
15617;DHT22;7908;51.688;7.130;2024-02-04T12:09:00;11.30;99.90
15617;DHT22;7908;51.688;7.130;2024-02-04T12:11:38;11.20;99.90
15617;DHT22;7908;51.688;7.130;2024-02-04T12:14:12;11.30;99.90
15617;DHT22;7908;51.688;7.130;2024-02-04T12:16:53;11.30;99.90
15617;DHT22;7908;51.688;7.130;2024-02-04T12:19:24;11.30;99.90
15617;DHT22;7908;51.688;7.130;2024-02-04T12:21:57;11.10;99.90
15617;DHT22;7908;51.688;7.130;2024-02-04T12:24:27;11.10;99.90
15617;DHT22;7908;51.688;7.130;2024-02-04T12:27:06;11.10;99.90
15617;DHT22;7908;51.688;7.130;2024-02-04T12:29:39;11.00;99.90
15617;DHT22;7908;51.688;7.130;2024-02-04T12:32:18;11.00;99.90
15617;DHT22;7908;51.688;7.130;2024-02-04T12:34:49;10.90;99.90
15617;DHT22;7908;51.688;7.130;2024-02-04T12:37:22;10.90;99.90
15617;DHT22;7908;51.688;7.130;2024-02-04T12:39:54;11.00;99.90
15617;DHT22;7908;51.688;7.130;2024-02-04T12:42:24;10.80;99.90
15617;DHT22;7908;51.688;7.130;2024-02-04T12:44:56;10.90;99.90
15617;DHT22;7908;51.688;7.130;2024-02-04T12:47:27;10.80;99.90
15617;DHT22;7908;51.688;7.130;2024-02-04T12:50:05;10.80;99.90
15617;DHT22;7908;51.688;7.130;2024-02-04T12:52:36;10.80;99.90
15617;DHT22;7908;51.688;7.130;2024-02-04T12:55:12;10.80;99.90
15617;DHT22;7908;51.688;7.130;2024-02-04T12:58:00;10.90;99.90
15617;DHT22;7908;51.688;7.130;2024-02-04T13:00:36;10.90;99.90
15617;DHT22;7908;51.688;7.130;2024-02-04T13:03:17;10.90;99.90
15617;DHT22;7908;51.688;7.130;2024-02-04T13:05:51;10.90;99.90
15617;DHT22;7908;51.688;7.130;2024-02-04T13:08:28;10.90;99.90
15617;DHT22;7908;51.688;7.130;2024-02-04T13:11:01;11.00;99.90
15617;DHT22;7908;51.688;7.130;2024-02-04T13:13:35;10.90;99.90
15617;DHT22;7908;51.688;7.130;2024-02-04T13:16:09;11.00;99.90
15617;DHT22;7908;51.688;7.130;2024-02-04T13:18:47;11.00;99.90
15617;DHT22;7908;51.688;7.130;2024-02-04T13:21:24;11.00;99.90
15617;DHT22;7908;51.688;7.130;2024-02-04T13:23:58;10.90;99.90
15617;DHT22;7908;51.688;7.130;2024-02-04T13:26:30;11.00;99.90
15617;DHT22;7908;51.688;7.130;2024-02-04T13:29:01;11.00;99.90
15617;DHT22;7908;51.688;7.130;2024-02-04T13:31:31;11.00;99.90
15617;DHT22;7908;51.688;7.130;2024-02-04T13:34:03;11.00;99.90
15617;DHT22;7908;51.688;7.130;2024-02-04T13:36:33;10.90;99.90
15617;DHT22;7908;51.688;7.130;2024-02-04T13:39:09;10.90;99.90
15617;DHT22;7908;51.688;7.130;2024-02-04T13:41:44;10.90;99.90
15617;DHT22;7908;51.688;7.130;2024-02-04T13:44:23;10.90;99.90
15617;DHT22;7908;51.688;7.130;2024-02-04T13:46:55;11.00;99.90
15617;DHT22;7908;51.688;7.130;2024-02-04T13:49:30;10.90;99.90
15617;DHT22;7908;51.688;7.130;2024-02-04T13:52:00;10.90;99.90
15617;DHT22;7908;51.688;7.130;2024-02-04T13:54:31;10.90;99.90
15617;DHT22;7908;51.688;7.130;2024-02-04T13:57:00;10.90;99.90
15617;DHT22;7908;51.688;7.130;2024-02-04T13:59:32;10.90;99.90
15617;DHT22;7908;51.688;7.130;2024-02-04T14:02:07;10.90;99.90
15617;DHT22;7908;51.688;7.130;2024-02-04T14:04:43;10.90;99.90
15617;DHT22;7908;51.688;7.130;2024-02-04T14:07:12;10.90;99.90
15617;DHT22;7908;51.688;7.130;2024-02-04T14:09:43;10.90;99.90
15617;DHT22;7908;51.688;7.130;2024-02-04T14:12:13;10.80;99.90
15617;DHT22;7908;51.688;7.130;2024-02-04T14:14:43;10.80;99.90
15617;DHT22;7908;51.688;7.130;2024-02-04T14:17:14;10.80;99.90
15617;DHT22;7908;51.688;7.130;2024-02-04T14:19:46;10.80;99.90
15617;DHT22;7908;51.688;7.130;2024-02-04T14:22:19;10.90;99.90
15617;DHT22;7908;51.688;7.130;2024-02-04T14:24:52;10.90;99.90
15617;DHT22;7908;51.688;7.130;2024-02-04T14:27:23;11.00;99.90
15617;DHT22;7908;51.688;7.130;2024-02-04T14:29:59;11.00;99.90
15617;DHT22;7908;51.688;7.130;2024-02-04T14:32:29;11.10;99.90
15617;DHT22;7908;51.688;7.130;2024-02-04T14:35:07;11.00;99.90
15617;DHT22;7908;51.688;7.130;2024-02-04T14:37:37;10.90;99.90
15617;DHT22;7908;51.688;7.130;2024-02-04T14:40:10;10.90;99.90
15617;DHT22;7908;51.688;7.130;2024-02-04T14:42:39;10.80;99.90
15617;DHT22;7908;51.688;7.130;2024-02-04T14:45:13;10.80;99.90
15617;DHT22;7908;51.688;7.130;2024-02-04T14:47:46;10.70;99.90
15617;DHT22;7908;51.688;7.130;2024-02-04T14:50:23;10.70;99.90
15617;DHT22;7908;51.688;7.130;2024-02-04T14:53:04;10.70;99.90
15617;DHT22;7908;51.688;7.130;2024-02-04T14:55:34;10.70;99.90
15617;DHT22;7908;51.688;7.130;2024-02-04T14:58:03;10.70;99.90
15617;DHT22;7908;51.688;7.130;2024-02-04T15:00:35;10.70;99.90
15617;DHT22;7908;51.688;7.130;2024-02-04T15:03:11;10.70;99.90
15617;DHT22;7908;51.688;7.130;2024-02-04T15:05:44;10.70;99.90
15617;DHT22;7908;51.688;7.130;2024-02-04T15:08:17;10.60;99.90
15617;DHT22;7908;51.688;7.130;2024-02-04T15:10:48;10.60;99.90
15617;DHT22;7908;51.688;7.130;2024-02-04T15:13:23;10.60;99.90
15617;DHT22;7908;51.688;7.130;2024-02-04T15:15:58;10.60;99.90
15617;DHT22;7908;51.688;7.130;2024-02-04T15:18:35;10.60;99.90
15617;DHT22;7908;51.688;7.130;2024-02-04T15:21:07;10.60;99.90
15617;DHT22;7908;51.688;7.130;2024-02-04T15:23:37;10.50;99.90
15617;DHT22;7908;51.688;7.130;2024-02-04T15:26:08;10.60;99.90
15617;DHT22;7908;51.688;7.130;2024-02-04T15:28:43;10.50;99.90
15617;DHT22;7908;51.688;7.130;2024-02-04T15:31:23;10.50;99.90
15617;DHT22;7908;51.688;7.130;2024-02-04T15:33:53;10.50;99.90
15617;DHT22;7908;51.688;7.130;2024-02-04T15:36:25;10.50;99.90
15617;DHT22;7908;51.688;7.130;2024-02-04T15:38:59;10.60;99.90
15617;DHT22;7908;51.688;7.130;2024-02-04T15:41:44;10.50;99.90
15617;DHT22;7908;51.688;7.130;2024-02-04T15:44:15;10.50;99.90
15617;DHT22;7908;51.688;7.130;2024-02-04T15:46:54;10.50;99.90
15617;DHT22;7908;51.688;7.130;2024-02-04T15:49:36;10.50;99.90
15617;DHT22;7908;51.688;7.130;2024-02-04T15:52:09;10.50;99.90
15617;DHT22;7908;51.688;7.130;2024-02-04T15:54:43;10.50;99.90
15617;DHT22;7908;51.688;7.130;2024-02-04T15:57:19;10.50;99.90
15617;DHT22;7908;51.688;7.130;2024-02-04T15:59:57;10.60;99.90
15617;DHT22;7908;51.688;7.130;2024-02-04T16:02:32;10.60;99.90
15617;DHT22;7908;51.688;7.130;2024-02-04T16:05:10;10.50;99.90
15617;DHT22;7908;51.688;7.130;2024-02-04T16:07:47;10.60;99.90
15617;DHT22;7908;51.688;7.130;2024-02-04T16:10:18;10.50;99.90
15617;DHT22;7908;51.688;7.130;2024-02-04T16:12:53;10.50;99.90
15617;DHT22;7908;51.688;7.130;2024-02-04T16:15:27;10.50;99.90